ADDS METAR Data INFO
IDs: Format: Raw Decoded Include TAF

Data at: 0501 UTC 23 May 2017

KDUB 230455Z AUTO 00000KT 10SM CLR 01/00 A3034 RMK AO2
KDUB 230435Z AUTO 00000KT 10SM CLR 01/00 A3034 RMK AO2
KDUB 230415Z AUTO 19004KT 10SM CLR 01/00 A3033 RMK AO2
KDUB 230355Z AUTO 00000KT 10SM CLR 01/00 A3033 RMK AO2
KDUB 230335Z AUTO 00000KT 10SM CLR 02/00 A3032 RMK AO2
KDUB 230315Z AUTO 26004KT 10SM CLR 02/00 A3032 RMK AO2
KDUB 230255Z AUTO 21003KT 10SM CLR 02/00 A3033 RMK AO2
KDUB 230235Z AUTO 00000KT 10SM CLR 04/00 A3032 RMK AO2
KDUB 230215Z AUTO 00000KT 10SM SCT038 SCT047 SCT060 05/00 A3032 RMK AO2
KDUB 230155Z AUTO 16004KT 10SM SCT038 SCT047 OVC070 05/00 A3032 RMK AO2
KDUB 230135Z AUTO 11005KT 10SM SCT055 BKN070 06/00 A3032 RMK AO2
KDUB 230115Z AUTO 13006KT 10SM SCT050 BKN070 OVC090 05/00 A3031 RMK AO2
KDUB 230055Z AUTO 15009KT 10SM SCT050 SCT065 BKN090 05/00 A3030 RMK AO2
KDUB 230035Z AUTO 14012G18KT 10SM SCT050 BKN065 OVC075 06/00 A3031 RMK AO2
KDUB 230015Z AUTO 14012G17KT 10SM SCT055 BKN075 OVC090 06/01 A3030 RMK AO2
KDUB 222355Z AUTO 15012KT 10SM SCT055 BKN070 OVC075 06/01 A3028 RMK AO2
KDUB 222335Z AUTO 12010KT 10SM BKN060 BKN075 OVC110 07/01 A3028 RMK AO2
KDUB 222315Z AUTO 12005KT 10SM SCT044 BKN085 OVC110 08/00 A3027 RMK AO2
KDUB 222255Z AUTO 11005G14KT 10SM SCT042 BKN090 OVC100 07/00 A3028 RMK AO2
KDUB 222235Z AUTO 33018G24KT 10SM SCT044 SCT070 OVC090 10/00 A3027 RMK AO2
KDUB 222215Z AUTO 02015G24KT 10SM SCT060 BKN070 OVC090 11/00 A3025 RMK AO2
KDUB 222155Z AUTO 32015KT 10SM BKN060 OVC070 12/M02 A3024 RMK AO2 LTG DSNT SE
KDUB 222135Z AUTO 33018G23KT 10SM BKN060 BKN070 OVC110 13/M01 A3024 RMK AO2
KDUB 222115Z AUTO 34015G24KT 10SM BKN060 BKN080 BKN120 13/M02 A3024 RMK AO2
KDUB 222055Z AUTO 35015G25KT 10SM SCT070 SCT080 BKN090 13/M02 A3024 RMK AO2
KDUB 222035Z AUTO 34021KT 10SM SCT060 SCT070 BKN120 13/M02 A3024 RMK AO2
KDUB 222015Z AUTO 10SM SCT065 SCT090 SCT110 13/M02 A3023 RMK AO2 LTG DSNT NE AND E
KDUB 221955Z AUTO 32020G27KT 10SM SCT065 SCT075 BKN110 13/M02 A3023 RMK AO2
KDUB 221935Z AUTO 10SM SCT070 BKN085 BKN120 13/M02 A3023 RMK AO2
KDUB 221915Z AUTO 32015G20KT 10SM SCT080 BKN090 13/M03 A3022 RMK AO2
KDUB 221855Z AUTO 35016G26KT 10SM BKN080 BKN100 14/M04 A3021 RMK AO2
KDUB 221835Z AUTO 33019G26KT 10SM SCT080 BKN090 13/M05 A3022 RMK AO2
KDUB 221815Z AUTO 35019G27KT 10SM SCT070 SCT080 13/M04 A3022 RMK AO2
KDUB 221755Z AUTO 32018G26KT 10SM SCT070 SCT080 13/M04 A3022 RMK AO2
KDUB 221735Z AUTO 32014KT 10SM BKN070 BKN080 12/M05 A3023 RMK AO2
KDUB 221715Z AUTO 33020KT 10SM SCT070 12/M05 A3023 RMK AO2
KDUB 221655Z AUTO 31018G21KT 285V345 10SM SCT060 12/M04 A3024 RMK AO2
KDUB 221635Z AUTO 32014G23KT 10SM BKN060 11/M05 A3024 RMK AO2 LTG DSNT E
KDUB 221615Z AUTO 33015G21KT 10SM BKN060 10/M04 A3024 RMK AO2 LTG DSNT E
KDUB 221555Z AUTO 34016G21KT 10SM BKN060 11/M03 A3025 RMK AO2
KDUB 221535Z AUTO 33013G18KT 10SM SCT070 10/M03 A3025 RMK AO2
KDUB 221515Z AUTO 35010G15KT 10SM CLR 10/M02 A3025 RMK AO2
KDUB 221455Z AUTO 34008KT 10SM CLR 10/M02 A3026 RMK AO2
KDUB 221435Z AUTO 34007KT 10SM CLR 08/M01 A3027 RMK AO2
KDUB 221415Z AUTO 32008KT 10SM CLR 06/M02 A3027 RMK AO2
KDUB 221355Z AUTO 32007KT 10SM CLR 05/M02 A3028 RMK AO2
KDUB 221335Z AUTO 32012KT 10SM CLR 03/M03 A3028 RMK AO2
KDUB 221315Z AUTO 32014KT 10SM CLR 03/M03 A3026 RMK AO2
KDUB 221255Z AUTO 30010KT 10SM CLR 02/M03 A3026 RMK AO2
KDUB 221235Z AUTO 30010KT 10SM CLR 02/M03 A3026 RMK AO2
KDUB 221215Z AUTO 29014KT 10SM CLR 02/M03 A3026 RMK AO2
KDUB 221155Z AUTO 31015KT 10SM CLR 01/M03 A3026 RMK AO2
KDUB 221135Z AUTO 31015KT 10SM CLR 02/M03 A3026 RMK AO2
KDUB 221115Z AUTO 33014KT 10SM CLR 02/M02 A3028 RMK AO2
KDUB 221055Z AUTO 24003KT 10SM CLR 01/M02 A3028 RMK AO2
KDUB 221035Z AUTO 31004KT 10SM CLR 01/M02 A3028 RMK AO2
KDUB 221015Z AUTO 33005KT 10SM CLR 01/M02 A3028 RMK AO2
KDUB 220955Z AUTO 32006KT 10SM CLR 01/M02 A3028 RMK AO2
KDUB 220935Z AUTO 29010KT 10SM CLR 01/M02 A3028 RMK AO2
KDUB 220915Z AUTO 31007KT 10SM CLR 01/M02 A3029 RMK AO2
KDUB 220855Z AUTO 29006KT 10SM CLR 01/M02 A3029 RMK AO2
KDUB 220835Z AUTO 27005KT 10SM CLR 01/M02 A3029 RMK AO2
KDUB 220815Z AUTO 28006KT 10SM CLR 01/M01 A3030 RMK AO2
KDUB 220755Z AUTO 29006KT 10SM CLR 01/M01 A3030 RMK AO2
KDUB 220735Z AUTO 30006KT 10SM CLR 01/M01 A3031 RMK AO2
KDUB 220715Z AUTO 29010KT 10SM CLR 02/M01 A3031 RMK AO2
KDUB 220655Z AUTO 29009KT 10SM CLR 02/M01 A3031 RMK AO2
KDUB 220635Z AUTO 29007KT 10SM CLR 02/M01 A3031 RMK AO2
KDUB 220615Z AUTO 31007KT 10SM CLR 02/00 A3031 RMK AO2
KDUB 220555Z AUTO 31007KT 10SM CLR 02/00 A3031 RMK AO2
KDUB 220535Z AUTO 29004KT 10SM CLR 03/00 A3031 RMK AO2
KDUB 220515Z AUTO 25006KT 10SM CLR 03/00 A3031 RMK AO2
KDUB 220455Z AUTO 27005KT 10SM CLR 03/00 A3031 RMK AO2
KDUB 220435Z AUTO 24004KT 10SM CLR 04/00 A3030 RMK AO2
KDUB 220415Z AUTO 00000KT 10SM CLR 05/00 A3030 RMK AO2
KDUB 220355Z AUTO 00000KT 10SM CLR 05/00 A3030 RMK AO2
KDUB 220335Z AUTO 00000KT 10SM CLR 07/00 A3029 RMK AO2
KDUB 220315Z AUTO 17005KT 10SM CLR 06/00 A3028 RMK AO2
KDUB 220255Z AUTO 18007KT 10SM CLR 07/00 A3028 RMK AO2
KDUB 220235Z AUTO 15011KT 10SM CLR 08/00 A3027 RMK AO2
KDUB 220215Z AUTO 14012G17KT 10SM CLR 08/00 A3026 RMK AO2 LTG DSNT S
KDUB 220155Z AUTO 14011G14KT 10SM CLR 08/00 A3026 RMK AO2
KDUB 220130Z AUTO 13008KT 10SM CLR 10/M01 A3025 RMK AO2
KDUB 220115Z AUTO 13005KT 10SM SCT080 11/M02 A3025 RMK AO2
KDUB 220055Z AUTO 13008KT 10SM SCT080 BKN100 BKN120 12/M02 A3024 RMK AO2
KDUB 220035Z AUTO 14009KT 10SM SCT090 BKN120 12/M01 A3024 RMK AO2 LTG DSNT S
KDUB 220015Z AUTO 13009KT 10SM CLR 12/M01 A3024 RMK AO2 LTG DSNT SW
KDUB 212355Z AUTO 13008G16KT 10SM CLR 12/00 A3024 RMK AO2
KDUB 212335Z AUTO 14009KT 095V155 10SM SCT110 12/00 A3024 RMK AO2 LTG DSNT S
KDUB 212315Z AUTO 13014G18KT 10SM SCT065 SCT080 SCT110 12/00 A3023 RMK AO2 LTG DSNT SW
KDUB 212255Z AUTO 13014G19KT 10SM SCT043 BKN075 OVC090 11/00 A3024 RMK AO2
KDUB 212235Z AUTO 12014G18KT 10SM -RA SCT050 BKN075 OVC100 12/00 A3024 RMK AO2 LTG DSNT S
KDUB 212215Z AUTO 11010G16KT 10SM SCT080 BKN095 BKN120 13/00 A3023 RMK AO2 LTG DSNT S
KDUB 212155Z AUTO 11009G18KT 10SM SCT095 SCT120 13/00 A3023 RMK AO2
KDUB 212135Z AUTO 13011KT 10SM CLR 12/00 A3024 RMK AO2 LTG DSNT S
KDUB 212115Z AUTO 12012G20KT 10SM CLR 12/00 A3024 RMK AO2 LTG DSNT SW
KDUB 212055Z AUTO 13014G23KT 10SM CLR 12/01 A3024 RMK AO2
KDUB 212035Z AUTO 12010G15KT 10SM CLR 12/00 A3024 RMK AO2 LTG DSNT SW
KDUB 212015Z AUTO 12011G14KT 10SM SCT031 SCT037 SCT050 12/00 A3024 RMK AO2
KDUB 211955Z AUTO 13011G17KT 10SM SCT035 SCT070 BKN100 12/01 A3024 RMK AO2
KDUB 211935Z AUTO 13010G17KT 10SM CLR 12/00 A3025 RMK AO2
KDUB 211915Z AUTO 12013G19KT 10SM CLR 11/00 A3025 RMK AO2
KDUB 211855Z AUTO 14013G18KT 10SM SCT035 SCT042 11/00 A3025 RMK AO2
KDUB 211835Z AUTO 14011G18KT 105V165 10SM VCTS SCT034 11/00 A3026 RMK AO2
KDUB 211815Z AUTO 13011KT 10SM SCT034 SCT060 BKN075 10/01 A3026 RMK AO2 LTG DSNT E
KDUB 211755Z AUTO 12012G16KT 10SM BKN065 OVC075 10/00 A3025 RMK AO2
KDUB 211735Z AUTO 11011G17KT 10SM SCT080 BKN085 11/01 A3025 RMK AO2
KDUB 211715Z AUTO 11011G14KT 10SM SCT080 10/01 A3025 RMK AO2


Page loaded:  05:01 UTC  |   10:01 PM Pacific  |   11:01 PM Mountain  |   12:01 AM Central  |   01:01 AM Eastern

 

ADVISORIES

FORECASTS

FORECASTS

OBSERVATIONS

USER TOOLS

ABOUT US